sensor_id;sensor_type;location;lat;lon;timestamp;pressure;altitude;pressure_sealevel;temperature;humidity
39555;BME280;25231;48.746;9.234;2023-02-19T00:02:09;97233.44;;;10.25;100.00
39555;BME280;25231;48.746;9.234;2023-02-19T00:04:34;97229.41;;;10.29;100.00
39555;BME280;25231;48.746;9.234;2023-02-19T00:06:59;97227.47;;;10.18;100.00
39555;BME280;25231;48.746;9.234;2023-02-19T00:09:25;97225.84;;;10.24;100.00
39555;BME280;25231;48.746;9.234;2023-02-19T00:11:50;97224.94;;;10.36;100.00
39555;BME280;25231;48.746;9.234;2023-02-19T00:14:20;97220.59;;;10.24;100.00
39555;BME280;25231;48.746;9.234;2023-02-19T00:16:45;97217.69;;;10.32;100.00
39555;BME280;25231;48.746;9.234;2023-02-19T00:19:13;97220.75;;;10.29;100.00
39555;BME280;25231;48.746;9.234;2023-02-19T00:21:38;97214.91;;;10.27;100.00
39555;BME280;25231;48.746;9.234;2023-02-19T00:24:06;97222.72;;;10.33;100.00
39555;BME280;25231;48.746;9.234;2023-02-19T00:26:32;97212.78;;;10.42;100.00
39555;BME280;25231;48.746;9.234;2023-02-19T00:28:59;97216.69;;;10.33;100.00
39555;BME280;25231;48.746;9.234;2023-02-19T00:31:30;97211.03;;;10.36;100.00
39555;BME280;25231;48.746;9.234;2023-02-19T00:33:58;97206.81;;;10.35;100.00
39555;BME280;25231;48.746;9.234;2023-02-19T00:36:25;97209.66;;;10.27;100.00
39555;BME280;25231;48.746;9.234;2023-02-19T00:38:51;97211.66;;;10.31;100.00
39555;BME280;25231;48.746;9.234;2023-02-19T00:41:17;97213.09;;;10.27;100.00
39555;BME280;25231;48.746;9.234;2023-02-19T00:44:04;97210.22;;;10.35;100.00
39555;BME280;25231;48.746;9.234;2023-02-19T00:46:30;97217.84;;;10.37;100.00
39555;BME280;25231;48.746;9.234;2023-02-19T00:48:56;97214.66;;;10.35;100.00
39555;BME280;25231;48.746;9.234;2023-02-19T00:51:25;97211.44;;;10.33;100.00
39555;BME280;25231;48.746;9.234;2023-02-19T00:53:51;97218.63;;;10.19;100.00
39555;BME280;25231;48.746;9.234;2023-02-19T00:56:17;97213.44;;;10.06;100.00
39555;BME280;25231;48.746;9.234;2023-02-19T00:58:42;97217.81;;;10.12;100.00
39555;BME280;25231;48.746;9.234;2023-02-19T01:01:09;97215.03;;;10.07;100.00
39555;BME280;25231;48.746;9.234;2023-02-19T01:03:36;97203.22;;;10.29;100.00
39555;BME280;25231;48.746;9.234;2023-02-19T01:06:03;97202.97;;;10.31;100.00
39555;BME280;25231;48.746;9.234;2023-02-19T01:08:28;97190.56;;;10.20;100.00
39555;BME280;25231;48.746;9.234;2023-02-19T01:10:55;97195.63;;;10.15;100.00
39555;BME280;25231;48.746;9.234;2023-02-19T01:13:20;97194.25;;;10.19;100.00
39555;BME280;25231;48.746;9.234;2023-02-19T01:15:46;97195.25;;;10.11;100.00
39555;BME280;25231;48.746;9.234;2023-02-19T01:18:11;97179.09;;;10.14;100.00
39555;BME280;25231;48.746;9.234;2023-02-19T01:20:38;97186.19;;;10.14;100.00
39555;BME280;25231;48.746;9.234;2023-02-19T01:23:04;97178.63;;;9.99;100.00
39555;BME280;25231;48.746;9.234;2023-02-19T01:25:30;97181.63;;;10.02;100.00
39555;BME280;25231;48.746;9.234;2023-02-19T01:27:55;97177.56;;;10.07;100.00
39555;BME280;25231;48.746;9.234;2023-02-19T01:30:20;97175.97;;;10.06;100.00
39555;BME280;25231;48.746;9.234;2023-02-19T01:32:46;97189.09;;;9.99;100.00
39555;BME280;25231;48.746;9.234;2023-02-19T01:35:11;97180.59;;;10.03;100.00
39555;BME280;25231;48.746;9.234;2023-02-19T01:37:36;97174.22;;;9.93;100.00
39555;BME280;25231;48.746;9.234;2023-02-19T01:40:02;97164.16;;;9.96;100.00
39555;BME280;25231;48.746;9.234;2023-02-19T01:42:27;97165.34;;;10.00;100.00
39555;BME280;25231;48.746;9.234;2023-02-19T01:47:19;97164.09;;;9.78;100.00
39555;BME280;25231;48.746;9.234;2023-02-19T01:49:53;97162.63;;;9.82;100.00
39555;BME280;25231;48.746;9.234;2023-02-19T01:52:25;97169.03;;;9.86;100.00
39555;BME280;25231;48.746;9.234;2023-02-19T01:54:53;97159.84;;;9.77;100.00
39555;BME280;25231;48.746;9.234;2023-02-19T01:57:22;97164.69;;;9.80;100.00
39555;BME280;25231;48.746;9.234;2023-02-19T01:59:52;97167.50;;;9.79;100.00
39555;BME280;25231;48.746;9.234;2023-02-19T02:02:20;97161.66;;;9.77;100.00
39555;BME280;25231;48.746;9.234;2023-02-19T02:04:45;97159.22;;;9.82;100.00
39555;BME280;25231;48.746;9.234;2023-02-19T02:07:11;97151.41;;;9.75;100.00
39555;BME280;25231;48.746;9.234;2023-02-19T02:09:56;97147.59;;;9.71;100.00
39555;BME280;25231;48.746;9.234;2023-02-19T02:12:40;97151.31;;;9.64;100.00
39555;BME280;25231;48.746;9.234;2023-02-19T02:15:05;97153.47;;;9.67;100.00
39555;BME280;25231;48.746;9.234;2023-02-19T02:17:42;97156.69;;;9.69;100.00
39555;BME280;25231;48.746;9.234;2023-02-19T02:20:33;97158.91;;;9.65;100.00
39555;BME280;25231;48.746;9.234;2023-02-19T02:23:03;97159.75;;;9.59;100.00
39555;BME280;25231;48.746;9.234;2023-02-19T02:31:25;97150.38;;;9.51;100.00
39555;BME280;25231;48.746;9.234;2023-02-19T02:36:29;97142.34;;;9.46;100.00
39555;BME280;25231;48.746;9.234;2023-02-19T02:38:56;97128.13;;;9.36;100.00
39555;BME280;25231;48.746;9.234;2023-02-19T02:41:23;97136.22;;;9.28;100.00
39555;BME280;25231;48.746;9.234;2023-02-19T02:43:49;97137.22;;;9.27;100.00
39555;BME280;25231;48.746;9.234;2023-02-19T02:46:18;97125.75;;;9.28;100.00
39555;BME280;25231;48.746;9.234;2023-02-19T02:48:48;97121.78;;;9.18;100.00
39555;BME280;25231;48.746;9.234;2023-02-19T02:51:29;97127.19;;;9.24;100.00
39555;BME280;25231;48.746;9.234;2023-02-19T02:54:09;97122.13;;;9.29;100.00
39555;BME280;25231;48.746;9.234;2023-02-19T02:56:55;97128.59;;;9.19;100.00
39555;BME280;25231;48.746;9.234;2023-02-19T02:59:23;97129.00;;;9.23;100.00
39555;BME280;25231;48.746;9.234;2023-02-19T03:02:05;97122.28;;;9.34;100.00
39555;BME280;25231;48.746;9.234;2023-02-19T03:04:51;97123.25;;;9.39;100.00
39555;BME280;25231;48.746;9.234;2023-02-19T03:10:12;97124.75;;;9.29;100.00
39555;BME280;25231;48.746;9.234;2023-02-19T03:12:39;97134.38;;;9.35;100.00
39555;BME280;25231;48.746;9.234;2023-02-19T03:15:30;97126.25;;;9.43;100.00
39555;BME280;25231;48.746;9.234;2023-02-19T03:18:15;97119.03;;;9.07;100.00
39555;BME280;25231;48.746;9.234;2023-02-19T03:21:01;97119.22;;;9.05;100.00
39555;BME280;25231;48.746;9.234;2023-02-19T03:23:30;97115.06;;;8.91;100.00
39555;BME280;25231;48.746;9.234;2023-02-19T03:26:16;97118.91;;;8.82;100.00
39555;BME280;25231;48.746;9.234;2023-02-19T03:28:44;97122.94;;;8.85;100.00
39555;BME280;25231;48.746;9.234;2023-02-19T03:31:30;97117.06;;;8.89;100.00
39555;BME280;25231;48.746;9.234;2023-02-19T03:33:59;97111.34;;;8.67;100.00
39555;BME280;25231;48.746;9.234;2023-02-19T03:36:32;97109.13;;;8.64;100.00
39555;BME280;25231;48.746;9.234;2023-02-19T03:39:02;97124.41;;;8.67;100.00
39555;BME280;25231;48.746;9.234;2023-02-19T03:41:35;97112.34;;;8.66;100.00
39555;BME280;25231;48.746;9.234;2023-02-19T03:44:11;97112.94;;;8.68;100.00
39555;BME280;25231;48.746;9.234;2023-02-19T03:52:16;97120.78;;;8.62;100.00
39555;BME280;25231;48.746;9.234;2023-02-19T03:55:01;97124.84;;;8.45;100.00
39555;BME280;25231;48.746;9.234;2023-02-19T03:57:48;97132.06;;;8.49;100.00
39555;BME280;25231;48.746;9.234;2023-02-19T04:00:16;97125.84;;;8.44;100.00
39555;BME280;25231;48.746;9.234;2023-02-19T04:02:54;97131.28;;;8.42;100.00
39555;BME280;25231;48.746;9.234;2023-02-19T04:05:29;97129.88;;;8.46;100.00
39555;BME280;25231;48.746;9.234;2023-02-19T04:07:59;97135.88;;;8.53;100.00
39555;BME280;25231;48.746;9.234;2023-02-19T04:10:27;97141.50;;;8.57;100.00
39555;BME280;25231;48.746;9.234;2023-02-19T04:13:03;97145.31;;;8.54;100.00
39555;BME280;25231;48.746;9.234;2023-02-19T04:15:32;97137.50;;;8.54;100.00
39555;BME280;25231;48.746;9.234;2023-02-19T04:18:03;97143.13;;;8.51;100.00
39555;BME280;25231;48.746;9.234;2023-02-19T04:20:35;97151.34;;;8.55;100.00
39555;BME280;25231;48.746;9.234;2023-02-19T04:23:01;97151.72;;;8.65;100.00
39555;BME280;25231;48.746;9.234;2023-02-19T04:25:28;97150.34;;;8.49;100.00
39555;BME280;25231;48.746;9.234;2023-02-19T04:27:54;97153.59;;;8.51;100.00
39555;BME280;25231;48.746;9.234;2023-02-19T04:30:20;97151.53;;;8.60;100.00
39555;BME280;25231;48.746;9.234;2023-02-19T04:32:46;97149.72;;;8.60;100.00
39555;BME280;25231;48.746;9.234;2023-02-19T04:35:11;97159.81;;;8.57;100.00
39555;BME280;25231;48.746;9.234;2023-02-19T04:37:36;97162.00;;;8.60;100.00
39555;BME280;25231;48.746;9.234;2023-02-19T04:40:02;97167.41;;;8.58;100.00
39555;BME280;25231;48.746;9.234;2023-02-19T04:42:27;97162.63;;;8.49;100.00
39555;BME280;25231;48.746;9.234;2023-02-19T04:44:53;97175.06;;;8.53;100.00
39555;BME280;25231;48.746;9.234;2023-02-19T04:47:18;97172.88;;;8.57;100.00
39555;BME280;25231;48.746;9.234;2023-02-19T04:49:44;97173.66;;;8.57;100.00
39555;BME280;25231;48.746;9.234;2023-02-19T04:52:10;97178.72;;;8.52;100.00
39555;BME280;25231;48.746;9.234;2023-02-19T04:54:35;97190.94;;;8.58;100.00
39555;BME280;25231;48.746;9.234;2023-02-19T04:57:00;97189.16;;;8.46;100.00
39555;BME280;25231;48.746;9.234;2023-02-19T04:59:26;97195.16;;;8.59;100.00
39555;BME280;25231;48.746;9.234;2023-02-19T05:01:51;97194.34;;;8.59;100.00
39555;BME280;25231;48.746;9.234;2023-02-19T05:04:16;97197.56;;;8.54;100.00
39555;BME280;25231;48.746;9.234;2023-02-19T05:06:42;97199.38;;;8.54;100.00
39555;BME280;25231;48.746;9.234;2023-02-19T05:09:07;97209.44;;;8.50;100.00
39555;BME280;25231;48.746;9.234;2023-02-19T05:11:33;97205.84;;;8.51;100.00
39555;BME280;25231;48.746;9.234;2023-02-19T05:13:58;97188.13;;;8.53;100.00
39555;BME280;25231;48.746;9.234;2023-02-19T05:16:23;97194.56;;;8.57;100.00
39555;BME280;25231;48.746;9.234;2023-02-19T05:18:49;97198.75;;;8.58;100.00
39555;BME280;25231;48.746;9.234;2023-02-19T05:21:14;97200.19;;;8.61;100.00
39555;BME280;25231;48.746;9.234;2023-02-19T05:23:40;97207.22;;;8.60;100.00
39555;BME280;25231;48.746;9.234;2023-02-19T05:26:17;97218.28;;;8.56;100.00
39555;BME280;25231;48.746;9.234;2023-02-19T05:28:48;97213.25;;;8.54;100.00
39555;BME280;25231;48.746;9.234;2023-02-19T05:31:14;97198.56;;;8.53;100.00
39555;BME280;25231;48.746;9.234;2023-02-19T05:33:40;97200.97;;;8.61;100.00
39555;BME280;25231;48.746;9.234;2023-02-19T05:36:12;97198.19;;;8.56;100.00
39555;BME280;25231;48.746;9.234;2023-02-19T05:38:38;97213.44;;;8.53;100.00
39555;BME280;25231;48.746;9.234;2023-02-19T05:41:20;97214.47;;;8.45;100.00
39555;BME280;25231;48.746;9.234;2023-02-19T05:43:47;97207.81;;;8.62;100.00
39555;BME280;25231;48.746;9.234;2023-02-19T05:46:15;97214.44;;;8.71;100.00
39555;BME280;25231;48.746;9.234;2023-02-19T05:48:41;97204.00;;;8.58;100.00
39555;BME280;25231;48.746;9.234;2023-02-19T05:51:09;97208.84;;;8.48;100.00
39555;BME280;25231;48.746;9.234;2023-02-19T05:53:35;97223.09;;;8.59;100.00
39555;BME280;25231;48.746;9.234;2023-02-19T05:56:01;97216.66;;;8.48;100.00
39555;BME280;25231;48.746;9.234;2023-02-19T05:58:26;97221.09;;;8.48;100.00
39555;BME280;25231;48.746;9.234;2023-02-19T06:00:52;97221.09;;;8.48;100.00
39555;BME280;25231;48.746;9.234;2023-02-19T06:03:17;97208.03;;;8.48;100.00
39555;BME280;25231;48.746;9.234;2023-02-19T06:05:43;97225.31;;;8.62;100.00
39555;BME280;25231;48.746;9.234;2023-02-19T06:08:11;97234.34;;;8.59;100.00
39555;BME280;25231;48.746;9.234;2023-02-19T06:10:37;97231.34;;;8.43;100.00
39555;BME280;25231;48.746;9.234;2023-02-19T06:13:04;97231.56;;;8.41;100.00
39555;BME280;25231;48.746;9.234;2023-02-19T06:15:30;97245.81;;;8.32;100.00
39555;BME280;25231;48.746;9.234;2023-02-19T06:17:57;97239.16;;;8.16;100.00
39555;BME280;25231;48.746;9.234;2023-02-19T06:20:25;97245.56;;;8.14;100.00
39555;BME280;25231;48.746;9.234;2023-02-19T06:22:59;97245.13;;;7.97;100.00
39555;BME280;25231;48.746;9.234;2023-02-19T06:25:25;97252.31;;;7.75;100.00
39555;BME280;25231;48.746;9.234;2023-02-19T06:27:50;97258.75;;;7.73;100.00
39555;BME280;25231;48.746;9.234;2023-02-19T06:30:15;97263.16;;;7.72;100.00
39555;BME280;25231;48.746;9.234;2023-02-19T06:32:41;97270.34;;;7.64;100.00
39555;BME280;25231;48.746;9.234;2023-02-19T06:35:06;97258.31;;;7.63;100.00
39555;BME280;25231;48.746;9.234;2023-02-19T06:37:32;97266.97;;;7.63;100.00
39555;BME280;25231;48.746;9.234;2023-02-19T06:39:57;97277.56;;;7.62;100.00
39555;BME280;25231;48.746;9.234;2023-02-19T06:42:23;97271.38;;;7.63;100.00
39555;BME280;25231;48.746;9.234;2023-02-19T06:44:48;97273.16;;;7.62;100.00
39555;BME280;25231;48.746;9.234;2023-02-19T06:47:13;97266.38;;;7.68;100.00
39555;BME280;25231;48.746;9.234;2023-02-19T06:49:39;97278.59;;;7.67;100.00
39555;BME280;25231;48.746;9.234;2023-02-19T06:52:05;97287.00;;;7.69;100.00
39555;BME280;25231;48.746;9.234;2023-02-19T06:54:31;97291.25;;;7.70;100.00
39555;BME280;25231;48.746;9.234;2023-02-19T06:56:58;97295.91;;;7.81;100.00
39555;BME280;25231;48.746;9.234;2023-02-19T06:59:23;97296.88;;;7.80;100.00
39555;BME280;25231;48.746;9.234;2023-02-19T07:01:49;97291.91;;;7.85;100.00
39555;BME280;25231;48.746;9.234;2023-02-19T07:04:14;97298.75;;;7.93;100.00
39555;BME280;25231;48.746;9.234;2023-02-19T07:06:40;97301.53;;;7.91;100.00
39555;BME280;25231;48.746;9.234;2023-02-19T07:09:06;97308.59;;;7.98;100.00
39555;BME280;25231;48.746;9.234;2023-02-19T07:11:34;97319.84;;;7.98;100.00
39555;BME280;25231;48.746;9.234;2023-02-19T07:14:03;97312.63;;;8.00;100.00
39555;BME280;25231;48.746;9.234;2023-02-19T07:16:29;97316.41;;;7.98;100.00
39555;BME280;25231;48.746;9.234;2023-02-19T07:18:55;97316.00;;;7.87;100.00
39555;BME280;25231;48.746;9.234;2023-02-19T07:21:22;97324.06;;;7.99;100.00
39555;BME280;25231;48.746;9.234;2023-02-19T07:23:47;97325.03;;;7.91;100.00
39555;BME280;25231;48.746;9.234;2023-02-19T07:26:15;97328.88;;;7.96;100.00
39555;BME280;25231;48.746;9.234;2023-02-19T07:28:45;97336.28;;;7.92;100.00
39555;BME280;25231;48.746;9.234;2023-02-19T07:31:11;97340.69;;;7.91;100.00
39555;BME280;25231;48.746;9.234;2023-02-19T07:33:37;97336.72;;;8.02;100.00
39555;BME280;25231;48.746;9.234;2023-02-19T07:36:05;97327.31;;;8.08;100.00
39555;BME280;25231;48.746;9.234;2023-02-19T07:38:31;97339.16;;;8.10;100.00
39555;BME280;25231;48.746;9.234;2023-02-19T07:40:59;97321.69;;;8.11;100.00
39555;BME280;25231;48.746;9.234;2023-02-19T07:43:26;97334.13;;;8.15;100.00
39555;BME280;25231;48.746;9.234;2023-02-19T07:45:52;97323.66;;;8.09;100.00
39555;BME280;25231;48.746;9.234;2023-02-19T07:48:18;97322.09;;;8.21;100.00
39555;BME280;25231;48.746;9.234;2023-02-19T07:53:16;97315.47;;;8.25;100.00
39555;BME280;25231;48.746;9.234;2023-02-19T07:55:41;97327.53;;;8.26;100.00
39555;BME280;25231;48.746;9.234;2023-02-19T07:58:06;97331.00;;;8.40;100.00
39555;BME280;25231;48.746;9.234;2023-02-19T08:00:32;97334.84;;;8.50;100.00
39555;BME280;25231;48.746;9.234;2023-02-19T08:02:57;97333.41;;;8.54;100.00
39555;BME280;25231;48.746;9.234;2023-02-19T08:05:43;97334.84;;;8.50;100.00
39555;BME280;25231;48.746;9.234;2023-02-19T08:08:12;97328.00;;;8.56;100.00
39555;BME280;25231;48.746;9.234;2023-02-19T08:10:38;97333.81;;;8.64;100.00
39555;BME280;25231;48.746;9.234;2023-02-19T08:13:22;97314.16;;;8.62;100.00
39555;BME280;25231;48.746;9.234;2023-02-19T08:15:54;97318.16;;;8.64;100.00
39555;BME280;25231;48.746;9.234;2023-02-19T08:18:22;97316.97;;;8.73;100.00
39555;BME280;25231;48.746;9.234;2023-02-19T08:20:48;97335.44;;;8.79;99.25
39555;BME280;25231;48.746;9.234;2023-02-19T08:23:14;97340.88;;;8.97;100.00
39555;BME280;25231;48.746;9.234;2023-02-19T08:25:40;97338.66;;;8.87;100.00
39555;BME280;25231;48.746;9.234;2023-02-19T08:28:06;97358.56;;;9.01;100.00
39555;BME280;25231;48.746;9.234;2023-02-19T08:30:32;97367.81;;;8.91;100.00
39555;BME280;25231;48.746;9.234;2023-02-19T08:32:59;97371.22;;;9.04;100.00
39555;BME280;25231;48.746;9.234;2023-02-19T08:35:27;97383.50;;;8.91;100.00
39555;BME280;25231;48.746;9.234;2023-02-19T08:37:57;97383.31;;;8.79;100.00
39555;BME280;25231;48.746;9.234;2023-02-19T08:40:23;97388.50;;;8.59;100.00
39555;BME280;25231;48.746;9.234;2023-02-19T08:42:50;97388.88;;;8.43;100.00
39555;BME280;25231;48.746;9.234;2023-02-19T08:45:15;97395.34;;;8.60;100.00
39555;BME280;25231;48.746;9.234;2023-02-19T08:47:41;97393.94;;;8.77;100.00
39555;BME280;25231;48.746;9.234;2023-02-19T08:50:07;97400.19;;;8.76;100.00
39555;BME280;25231;48.746;9.234;2023-02-19T08:52:32;97402.38;;;8.86;100.00
39555;BME280;25231;48.746;9.234;2023-02-19T08:54:58;97413.06;;;8.85;100.00
39555;BME280;25231;48.746;9.234;2023-02-19T08:57:23;97412.66;;;8.88;100.00
39555;BME280;25231;48.746;9.234;2023-02-19T08:59:49;97421.91;;;8.84;100.00
39555;BME280;25231;48.746;9.234;2023-02-19T09:02:14;97421.72;;;8.85;100.00
39555;BME280;25231;48.746;9.234;2023-02-19T09:04:40;97429.72;;;8.77;100.00
39555;BME280;25231;48.746;9.234;2023-02-19T09:07:05;97420.50;;;8.74;100.00
39555;BME280;25231;48.746;9.234;2023-02-19T09:09:38;97429.13;;;8.82;100.00
39555;BME280;25231;48.746;9.234;2023-02-19T09:12:05;97437.19;;;8.87;100.00
39555;BME280;25231;48.746;9.234;2023-02-19T09:14:32;97418.28;;;8.85;100.00
39555;BME280;25231;48.746;9.234;2023-02-19T09:16:58;97436.19;;;8.74;100.00
39555;BME280;25231;48.746;9.234;2023-02-19T09:19:24;97444.22;;;8.80;100.00
39555;BME280;25231;48.746;9.234;2023-02-19T09:21:50;97440.19;;;8.84;100.00
39555;BME280;25231;48.746;9.234;2023-02-19T09:24:15;97451.28;;;8.99;100.00
39555;BME280;25231;48.746;9.234;2023-02-19T09:26:41;97448.25;;;9.15;100.00
39555;BME280;25231;48.746;9.234;2023-02-19T09:29:06;97450.25;;;9.19;100.00
39555;BME280;25231;48.746;9.234;2023-02-19T09:31:31;97447.44;;;9.14;100.00
39555;BME280;25231;48.746;9.234;2023-02-19T09:33:59;97449.84;;;9.03;98.09
39555;BME280;25231;48.746;9.234;2023-02-19T09:36:24;97451.47;;;9.04;97.29
39555;BME280;25231;48.746;9.234;2023-02-19T09:38:50;97448.00;;;9.82;100.00
39555;BME280;25231;48.746;9.234;2023-02-19T09:41:27;97451.25;;;9.65;93.08
39555;BME280;25231;48.746;9.234;2023-02-19T09:43:54;97454.91;;;9.50;93.69
39555;BME280;25231;48.746;9.234;2023-02-19T09:46:46;97452.28;;;9.57;92.43
39555;BME280;25231;48.746;9.234;2023-02-19T09:49:19;97449.84;;;9.42;91.02
39555;BME280;25231;48.746;9.234;2023-02-19T09:51:52;97465.56;;;9.49;91.23
39555;BME280;25231;48.746;9.234;2023-02-19T09:54:26;97475.22;;;9.48;90.65
39555;BME280;25231;48.746;9.234;2023-02-19T09:56:55;97470.00;;;9.35;89.40
39555;BME280;25231;48.746;9.234;2023-02-19T09:59:42;97475.25;;;9.35;90.00
39555;BME280;25231;48.746;9.234;2023-02-19T10:02:20;97477.03;;;9.54;88.56
39555;BME280;25231;48.746;9.234;2023-02-19T10:04:48;97464.13;;;9.66;86.27
39555;BME280;25231;48.746;9.234;2023-02-19T10:07:18;97466.34;;;9.69;85.89
39555;BME280;25231;48.746;9.234;2023-02-19T10:09:49;97468.13;;;9.82;85.15
39555;BME280;25231;48.746;9.234;2023-02-19T10:12:20;97467.50;;;9.93;83.82
39555;BME280;25231;48.746;9.234;2023-02-19T10:14:49;97464.66;;;10.01;83.47
39555;BME280;25231;48.746;9.234;2023-02-19T10:17:23;97468.69;;;10.03;82.04
39555;BME280;25231;48.746;9.234;2023-02-19T10:19:50;97456.81;;;9.94;81.83
39555;BME280;25231;48.746;9.234;2023-02-19T10:22:16;97467.31;;;9.94;82.25
39555;BME280;25231;48.746;9.234;2023-02-19T10:24:43;97457.19;;;10.05;81.68
39555;BME280;25231;48.746;9.234;2023-02-19T10:27:15;97460.31;;;10.46;81.83
39555;BME280;25231;48.746;9.234;2023-02-19T10:29:45;97459.06;;;10.49;82.12
39555;BME280;25231;48.746;9.234;2023-02-19T10:32:13;97460.13;;;10.41;81.96
39555;BME280;25231;48.746;9.234;2023-02-19T10:34:41;97469.28;;;10.19;83.75
39555;BME280;25231;48.746;9.234;2023-02-19T10:37:13;97474.06;;;10.28;83.80
39555;BME280;25231;48.746;9.234;2023-02-19T10:39:44;97485.34;;;10.35;83.20
39555;BME280;25231;48.746;9.234;2023-02-19T10:42:19;97484.56;;;10.28;83.04
39555;BME280;25231;48.746;9.234;2023-02-19T10:44:48;97487.78;;;10.30;83.29
39555;BME280;25231;48.746;9.234;2023-02-19T10:47:21;97492.81;;;10.32;82.74
39555;BME280;25231;48.746;9.234;2023-02-19T10:49:48;97494.22;;;10.34;81.75
39555;BME280;25231;48.746;9.234;2023-02-19T10:52:23;97488.56;;;10.31;82.26
39555;BME280;25231;48.746;9.234;2023-02-19T10:54:55;97492.84;;;10.12;82.01
39555;BME280;25231;48.746;9.234;2023-02-19T10:57:28;97489.75;;;10.41;81.83
39555;BME280;25231;48.746;9.234;2023-02-19T11:00:19;97491.78;;;10.33;81.23
39555;BME280;25231;48.746;9.234;2023-02-19T11:02:47;97493.91;;;10.56;80.15
39555;BME280;25231;48.746;9.234;2023-02-19T11:05:17;97490.69;;;10.54;78.60
39555;BME280;25231;48.746;9.234;2023-02-19T11:10:20;97490.81;;;10.27;76.79
39555;BME280;25231;48.746;9.234;2023-02-19T11:12:49;97485.09;;;10.43;78.38
39555;BME280;25231;48.746;9.234;2023-02-19T11:17:44;97473.06;;;10.74;75.95
39555;BME280;25231;48.746;9.234;2023-02-19T11:20:14;97495.06;;;10.66;76.37
39555;BME280;25231;48.746;9.234;2023-02-19T11:22:42;97498.56;;;10.54;75.49
39555;BME280;25231;48.746;9.234;2023-02-19T11:28:19;97490.19;;;10.25;76.82
39555;BME280;25231;48.746;9.234;2023-02-19T11:30:47;97502.75;;;10.61;76.12
39555;BME280;25231;48.746;9.234;2023-02-19T11:35:41;97501.47;;;10.77;74.44
39555;BME280;25231;48.746;9.234;2023-02-19T11:38:09;97495.91;;;10.60;74.87
39555;BME280;25231;48.746;9.234;2023-02-19T11:40:43;97493.03;;;10.75;75.18
39555;BME280;25231;48.746;9.234;2023-02-19T11:46:32;97491.78;;;10.77;73.82
39555;BME280;25231;48.746;9.234;2023-02-19T11:49:24;97504.25;;;10.82;74.48
39555;BME280;25231;48.746;9.234;2023-02-19T11:52:27;97508.16;;;11.04;73.03
39555;BME280;25231;48.746;9.234;2023-02-19T12:20:26;97501.09;;;10.73;75.60
39555;BME280;25231;48.746;9.234;2023-02-19T12:26:00;97493.84;;;10.75;73.17
39555;BME280;25231;48.746;9.234;2023-02-19T12:28:57;97499.97;;;10.94;72.85
39555;BME280;25231;48.746;9.234;2023-02-19T12:31:35;97475.06;;;10.78;73.00
39555;BME280;25231;48.746;9.234;2023-02-19T12:34:38;97488.66;;;10.94;72.81
39555;BME280;25231;48.746;9.234;2023-02-19T12:37:22;97478.81;;;10.89;72.91
39555;BME280;25231;48.746;9.234;2023-02-19T12:40:17;97488.09;;;10.92;73.12
39555;BME280;25231;48.746;9.234;2023-02-19T12:43:09;97487.56;;;10.76;72.63
39555;BME280;25231;48.746;9.234;2023-02-19T12:48:34;97499.41;;;10.92;72.04
39555;BME280;25231;48.746;9.234;2023-02-19T12:51:15;97492.78;;;10.83;71.66
39555;BME280;25231;48.746;9.234;2023-02-19T12:53:53;97496.38;;;10.89;70.95
39555;BME280;25231;48.746;9.234;2023-02-19T12:56:45;97482.72;;;11.11;70.46
39555;BME280;25231;48.746;9.234;2023-02-19T12:59:19;97480.03;;;11.43;70.03
39555;BME280;25231;48.746;9.234;2023-02-19T13:02:39;97485.41;;;11.54;68.00
39555;BME280;25231;48.746;9.234;2023-02-19T13:05:14;97500.16;;;11.80;67.92
39555;BME280;25231;48.746;9.234;2023-02-19T13:07:55;97486.16;;;11.61;68.37
39555;BME280;25231;48.746;9.234;2023-02-19T13:12:53;97492.34;;;11.17;69.17
39555;BME280;25231;48.746;9.234;2023-02-19T13:15:28;97489.59;;;11.06;70.27
39555;BME280;25231;48.746;9.234;2023-02-19T13:17:56;97496.94;;;10.97;70.87
39555;BME280;25231;48.746;9.234;2023-02-19T13:20:24;97490.63;;;11.05;70.89
39555;BME280;25231;48.746;9.234;2023-02-19T13:34:13;97484.19;;;10.69;70.48
39555;BME280;25231;48.746;9.234;2023-02-19T13:36:42;97483.78;;;10.66;70.50
39555;BME280;25231;48.746;9.234;2023-02-19T13:39:12;97495.59;;;10.81;70.39
39555;BME280;25231;48.746;9.234;2023-02-19T13:41:40;97487.84;;;10.62;70.85
39555;BME280;25231;48.746;9.234;2023-02-19T13:44:16;97486.72;;;10.45;71.66
39555;BME280;25231;48.746;9.234;2023-02-19T13:46:44;97478.56;;;10.59;71.89
39555;BME280;25231;48.746;9.234;2023-02-19T13:51:59;97476.47;;;10.36;72.40
39555;BME280;25231;48.746;9.234;2023-02-19T13:54:33;97473.44;;;10.39;72.72
39555;BME280;25231;48.746;9.234;2023-02-19T13:59:57;97470.53;;;10.54;72.39
39555;BME280;25231;48.746;9.234;2023-02-19T14:02:28;97475.53;;;10.18;72.82
39555;BME280;25231;48.746;9.234;2023-02-19T14:04:56;97468.47;;;10.12;73.37
39555;BME280;25231;48.746;9.234;2023-02-19T14:09:53;97476.69;;;10.35;72.55
39555;BME280;25231;48.746;9.234;2023-02-19T14:12:20;97481.28;;;10.39;72.30
39555;BME280;25231;48.746;9.234;2023-02-19T14:14:51;97467.66;;;10.24;72.58
39555;BME280;25231;48.746;9.234;2023-02-19T14:30:50;97484.91;;;10.38;73.38
39555;BME280;25231;48.746;9.234;2023-02-19T14:33:19;97489.34;;;10.45;73.24
39555;BME280;25231;48.746;9.234;2023-02-19T14:35:48;97501.81;;;10.42;72.33
39555;BME280;25231;48.746;9.234;2023-02-19T14:38:38;97495.84;;;10.73;72.14
39555;BME280;25231;48.746;9.234;2023-02-19T14:41:06;97502.44;;;10.82;71.42
39555;BME280;25231;48.746;9.234;2023-02-19T14:43:35;97503.41;;;10.50;72.01
39555;BME280;25231;48.746;9.234;2023-02-19T14:46:06;97500.00;;;10.50;72.78
39555;BME280;25231;48.746;9.234;2023-02-19T14:48:37;97500.72;;;10.70;71.62
39555;BME280;25231;48.746;9.234;2023-02-19T14:51:12;97498.34;;;10.62;71.48
39555;BME280;25231;48.746;9.234;2023-02-19T14:53:42;97511.53;;;10.42;71.58
39555;BME280;25231;48.746;9.234;2023-02-19T14:56:19;97525.03;;;10.39;71.96
39555;BME280;25231;48.746;9.234;2023-02-19T14:59:08;97518.59;;;10.41;72.63